sensor_id;sensor_type;location;lat;lon;timestamp;P1;durP1;ratioP1;P2;durP2;ratioP2
9720;SDS011;4899;42.644;23.366;2023-06-19T00:00:51;4.20;;;3.90;;
9720;SDS011;4899;42.644;23.366;2023-06-19T00:03:17;6.27;;;4.03;;
9720;SDS011;4899;42.644;23.366;2023-06-19T00:05:42;4.20;;;3.80;;
9720;SDS011;4899;42.644;23.366;2023-06-19T00:08:08;4.30;;;4.00;;
9720;SDS011;4899;42.644;23.366;2023-06-19T00:10:33;4.37;;;4.00;;
9720;SDS011;4899;42.644;23.366;2023-06-19T00:12:58;4.93;;;3.97;;
9720;SDS011;4899;42.644;23.366;2023-06-19T00:15:23;4.47;;;4.07;;
9720;SDS011;4899;42.644;23.366;2023-06-19T00:17:49;4.20;;;3.90;;
9720;SDS011;4899;42.644;23.366;2023-06-19T00:20:14;4.70;;;4.30;;
9720;SDS011;4899;42.644;23.366;2023-06-19T00:22:40;5.20;;;4.13;;
9720;SDS011;4899;42.644;23.366;2023-06-19T00:25:05;5.07;;;4.57;;
9720;SDS011;4899;42.644;23.366;2023-06-19T00:27:31;4.10;;;3.80;;
9720;SDS011;4899;42.644;23.366;2023-06-19T00:29:56;5.37;;;4.53;;
9720;SDS011;4899;42.644;23.366;2023-06-19T00:32:27;4.73;;;4.30;;
9720;SDS011;4899;42.644;23.366;2023-06-19T00:34:52;4.30;;;4.00;;
9720;SDS011;4899;42.644;23.366;2023-06-19T00:37:18;4.50;;;4.20;;
9720;SDS011;4899;42.644;23.366;2023-06-19T00:39:43;4.33;;;3.93;;
9720;SDS011;4899;42.644;23.366;2023-06-19T00:42:08;4.50;;;4.10;;
9720;SDS011;4899;42.644;23.366;2023-06-19T00:44:34;3.70;;;3.50;;
9720;SDS011;4899;42.644;23.366;2023-06-19T00:47:00;7.37;;;4.43;;
9720;SDS011;4899;42.644;23.366;2023-06-19T00:49:26;4.20;;;3.80;;
9720;SDS011;4899;42.644;23.366;2023-06-19T00:51:52;4.23;;;3.93;;
9720;SDS011;4899;42.644;23.366;2023-06-19T00:54:18;4.10;;;3.80;;
9720;SDS011;4899;42.644;23.366;2023-06-19T00:56:44;4.27;;;3.87;;
9720;SDS011;4899;42.644;23.366;2023-06-19T00:59:18;4.90;;;4.50;;
9720;SDS011;4899;42.644;23.366;2023-06-19T01:01:44;5.07;;;4.33;;
9720;SDS011;4899;42.644;23.366;2023-06-19T01:04:10;4.63;;;4.33;;
9720;SDS011;4899;42.644;23.366;2023-06-19T01:09:10;5.03;;;3.90;;
9720;SDS011;4899;42.644;23.366;2023-06-19T01:11:42;4.90;;;4.50;;
9720;SDS011;4899;42.644;23.366;2023-06-19T01:14:09;4.17;;;3.87;;
9720;SDS011;4899;42.644;23.366;2023-06-19T01:16:37;5.30;;;4.10;;
9720;SDS011;4899;42.644;23.366;2023-06-19T01:19:03;4.47;;;4.10;;
9720;SDS011;4899;42.644;23.366;2023-06-19T01:21:29;5.37;;;3.87;;
9720;SDS011;4899;42.644;23.366;2023-06-19T01:23:54;4.23;;;3.93;;
9720;SDS011;4899;42.644;23.366;2023-06-19T01:26:22;4.27;;;3.97;;
9720;SDS011;4899;42.644;23.366;2023-06-19T01:28:52;5.77;;;5.27;;
9720;SDS011;4899;42.644;23.366;2023-06-19T01:31:26;4.60;;;4.20;;
9720;SDS011;4899;42.644;23.366;2023-06-19T01:33:53;4.80;;;4.50;;
9720;SDS011;4899;42.644;23.366;2023-06-19T01:36:19;4.97;;;4.47;;
9720;SDS011;4899;42.644;23.366;2023-06-19T01:38:45;6.83;;;4.83;;
9720;SDS011;4899;42.644;23.366;2023-06-19T01:41:12;5.07;;;4.57;;
9720;SDS011;4899;42.644;23.366;2023-06-19T01:43:40;4.83;;;4.27;;
9720;SDS011;4899;42.644;23.366;2023-06-19T01:46:05;4.10;;;3.83;;
9720;SDS011;4899;42.644;23.366;2023-06-19T01:48:31;5.77;;;5.13;;
9720;SDS011;4899;42.644;23.366;2023-06-19T01:50:56;4.83;;;4.43;;
9720;SDS011;4899;42.644;23.366;2023-06-19T01:53:21;4.97;;;4.50;;
9720;SDS011;4899;42.644;23.366;2023-06-19T01:55:47;4.50;;;4.17;;
9720;SDS011;4899;42.644;23.366;2023-06-19T01:58:12;4.57;;;4.20;;
9720;SDS011;4899;42.644;23.366;2023-06-19T02:00:37;4.47;;;4.13;;
9720;SDS011;4899;42.644;23.366;2023-06-19T02:03:03;7.70;;;4.13;;
9720;SDS011;4899;42.644;23.366;2023-06-19T02:05:29;5.83;;;4.70;;
9720;SDS011;4899;42.644;23.366;2023-06-19T02:07:54;5.57;;;5.00;;
9720;SDS011;4899;42.644;23.366;2023-06-19T02:10:19;5.37;;;4.87;;
9720;SDS011;4899;42.644;23.366;2023-06-19T02:12:45;5.73;;;5.20;;
9720;SDS011;4899;42.644;23.366;2023-06-19T02:15:10;5.13;;;4.73;;
9720;SDS011;4899;42.644;23.366;2023-06-19T02:17:35;5.73;;;5.13;;
9720;SDS011;4899;42.644;23.366;2023-06-19T02:20:01;5.50;;;5.00;;
9720;SDS011;4899;42.644;23.366;2023-06-19T02:22:26;5.33;;;4.93;;
9720;SDS011;4899;42.644;23.366;2023-06-19T02:24:52;5.13;;;4.73;;
9720;SDS011;4899;42.644;23.366;2023-06-19T02:27:17;7.03;;;4.90;;
9720;SDS011;4899;42.644;23.366;2023-06-19T02:29:42;5.27;;;4.77;;
9720;SDS011;4899;42.644;23.366;2023-06-19T02:32:07;6.37;;;5.37;;
9720;SDS011;4899;42.644;23.366;2023-06-19T02:34:33;5.90;;;5.17;;
9720;SDS011;4899;42.644;23.366;2023-06-19T02:36:58;6.00;;;5.50;;
9720;SDS011;4899;42.644;23.366;2023-06-19T02:39:23;6.67;;;5.00;;
9720;SDS011;4899;42.644;23.366;2023-06-19T02:41:49;7.07;;;5.73;;
9720;SDS011;4899;42.644;23.366;2023-06-19T02:44:14;5.80;;;5.33;;
9720;SDS011;4899;42.644;23.366;2023-06-19T02:46:39;8.67;;;5.63;;
9720;SDS011;4899;42.644;23.366;2023-06-19T02:49:05;6.20;;;5.60;;
9720;SDS011;4899;42.644;23.366;2023-06-19T02:51:30;6.00;;;5.40;;
9720;SDS011;4899;42.644;23.366;2023-06-19T02:53:55;6.00;;;5.60;;
9720;SDS011;4899;42.644;23.366;2023-06-19T02:56:21;9.30;;;5.43;;
9720;SDS011;4899;42.644;23.366;2023-06-19T02:58:46;7.73;;;5.73;;
9720;SDS011;4899;42.644;23.366;2023-06-19T03:01:12;6.30;;;5.67;;
9720;SDS011;4899;42.644;23.366;2023-06-19T03:03:37;6.83;;;6.10;;
9720;SDS011;4899;42.644;23.366;2023-06-19T03:06:05;5.40;;;5.00;;
9720;SDS011;4899;42.644;23.366;2023-06-19T03:08:32;6.27;;;5.77;;
9720;SDS011;4899;42.644;23.366;2023-06-19T03:10:58;6.03;;;5.43;;
9720;SDS011;4899;42.644;23.366;2023-06-19T03:13:23;6.53;;;5.87;;
9720;SDS011;4899;42.644;23.366;2023-06-19T03:15:48;7.03;;;6.30;;
9720;SDS011;4899;42.644;23.366;2023-06-19T03:18:13;6.70;;;6.20;;
9720;SDS011;4899;42.644;23.366;2023-06-19T03:20:39;7.00;;;6.40;;
9720;SDS011;4899;42.644;23.366;2023-06-19T03:23:04;7.40;;;6.67;;
9720;SDS011;4899;42.644;23.366;2023-06-19T03:25:30;7.07;;;6.50;;
9720;SDS011;4899;42.644;23.366;2023-06-19T03:28:00;6.93;;;6.33;;
9720;SDS011;4899;42.644;23.366;2023-06-19T03:30:26;6.53;;;6.00;;
9720;SDS011;4899;42.644;23.366;2023-06-19T03:32:51;7.70;;;5.67;;
9720;SDS011;4899;42.644;23.366;2023-06-19T03:35:16;8.90;;;6.77;;
9720;SDS011;4899;42.644;23.366;2023-06-19T03:37:41;6.83;;;6.13;;
9720;SDS011;4899;42.644;23.366;2023-06-19T03:40:07;6.00;;;5.40;;
9720;SDS011;4899;42.644;23.366;2023-06-19T03:42:38;5.57;;;5.17;;
9720;SDS011;4899;42.644;23.366;2023-06-19T03:45:03;6.27;;;5.77;;
9720;SDS011;4899;42.644;23.366;2023-06-19T03:47:28;7.03;;;6.23;;
9720;SDS011;4899;42.644;23.366;2023-06-19T03:49:54;6.93;;;5.37;;
9720;SDS011;4899;42.644;23.366;2023-06-19T03:52:19;5.87;;;5.47;;
9720;SDS011;4899;42.644;23.366;2023-06-19T03:54:44;7.03;;;6.23;;
9720;SDS011;4899;42.644;23.366;2023-06-19T03:57:09;6.40;;;5.80;;
9720;SDS011;4899;42.644;23.366;2023-06-19T03:59:35;6.07;;;5.57;;
9720;SDS011;4899;42.644;23.366;2023-06-19T04:02:00;6.63;;;5.57;;
9720;SDS011;4899;42.644;23.366;2023-06-19T04:04:25;6.43;;;5.30;;
9720;SDS011;4899;42.644;23.366;2023-06-19T04:06:50;5.83;;;5.23;;
9720;SDS011;4899;42.644;23.366;2023-06-19T04:09:16;5.57;;;5.07;;
9720;SDS011;4899;42.644;23.366;2023-06-19T04:11:41;6.60;;;5.77;;
9720;SDS011;4899;42.644;23.366;2023-06-19T04:14:06;6.27;;;5.67;;
9720;SDS011;4899;42.644;23.366;2023-06-19T04:16:31;6.93;;;5.97;;
9720;SDS011;4899;42.644;23.366;2023-06-19T04:18:57;8.87;;;5.93;;
9720;SDS011;4899;42.644;23.366;2023-06-19T04:21:22;6.93;;;6.23;;
9720;SDS011;4899;42.644;23.366;2023-06-19T04:23:47;8.47;;;5.47;;
9720;SDS011;4899;42.644;23.366;2023-06-19T04:26:13;8.63;;;5.73;;
9720;SDS011;4899;42.644;23.366;2023-06-19T04:28:38;6.07;;;5.57;;
9720;SDS011;4899;42.644;23.366;2023-06-19T04:31:04;6.10;;;5.60;;
9720;SDS011;4899;42.644;23.366;2023-06-19T04:33:30;7.53;;;5.43;;
9720;SDS011;4899;42.644;23.366;2023-06-19T04:35:57;7.23;;;6.20;;
9720;SDS011;4899;42.644;23.366;2023-06-19T04:38:22;8.47;;;6.07;;
9720;SDS011;4899;42.644;23.366;2023-06-19T04:40:50;7.40;;;6.70;;
9720;SDS011;4899;42.644;23.366;2023-06-19T04:43:16;7.60;;;5.50;;
9720;SDS011;4899;42.644;23.366;2023-06-19T04:45:41;6.33;;;5.73;;
9720;SDS011;4899;42.644;23.366;2023-06-19T04:48:07;6.63;;;6.00;;
9720;SDS011;4899;42.644;23.366;2023-06-19T04:50:32;6.33;;;5.73;;
9720;SDS011;4899;42.644;23.366;2023-06-19T04:52:58;9.87;;;5.97;;
9720;SDS011;4899;42.644;23.366;2023-06-19T04:55:23;8.60;;;5.23;;
9720;SDS011;4899;42.644;23.366;2023-06-19T04:57:50;6.47;;;5.73;;
9720;SDS011;4899;42.644;23.366;2023-06-19T05:00:15;7.80;;;5.63;;
9720;SDS011;4899;42.644;23.366;2023-06-19T05:02:44;8.17;;;5.53;;
9720;SDS011;4899;42.644;23.366;2023-06-19T05:05:10;8.03;;;5.50;;
9720;SDS011;4899;42.644;23.366;2023-06-19T05:07:36;8.37;;;5.70;;
9720;SDS011;4899;42.644;23.366;2023-06-19T05:10:01;11.43;;;5.03;;
9720;SDS011;4899;42.644;23.366;2023-06-19T05:12:27;5.70;;;5.03;;
9720;SDS011;4899;42.644;23.366;2023-06-19T05:14:52;6.43;;;5.10;;
9720;SDS011;4899;42.644;23.366;2023-06-19T05:17:17;5.10;;;4.70;;
9720;SDS011;4899;42.644;23.366;2023-06-19T05:19:43;6.17;;;5.00;;
9720;SDS011;4899;42.644;23.366;2023-06-19T05:22:08;4.80;;;4.40;;
9720;SDS011;4899;42.644;23.366;2023-06-19T05:24:33;5.10;;;4.63;;
9720;SDS011;4899;42.644;23.366;2023-06-19T05:26:59;4.63;;;4.07;;
9720;SDS011;4899;42.644;23.366;2023-06-19T05:29:24;4.67;;;4.10;;
9720;SDS011;4899;42.644;23.366;2023-06-19T05:31:50;4.90;;;4.40;;
9720;SDS011;4899;42.644;23.366;2023-06-19T05:34:15;4.90;;;4.50;;
9720;SDS011;4899;42.644;23.366;2023-06-19T05:36:40;6.77;;;5.10;;
9720;SDS011;4899;42.644;23.366;2023-06-19T05:39:06;4.90;;;4.60;;
9720;SDS011;4899;42.644;23.366;2023-06-19T05:41:31;4.90;;;4.50;;
9720;SDS011;4899;42.644;23.366;2023-06-19T05:43:56;6.10;;;4.77;;
9720;SDS011;4899;42.644;23.366;2023-06-19T05:46:22;5.23;;;4.43;;
9720;SDS011;4899;42.644;23.366;2023-06-19T05:48:47;4.70;;;4.17;;
9720;SDS011;4899;42.644;23.366;2023-06-19T05:51:12;5.30;;;4.90;;
9720;SDS011;4899;42.644;23.366;2023-06-19T05:53:37;5.83;;;4.63;;
9720;SDS011;4899;42.644;23.366;2023-06-19T05:56:03;4.87;;;4.40;;
9720;SDS011;4899;42.644;23.366;2023-06-19T05:58:30;5.10;;;4.43;;
9720;SDS011;4899;42.644;23.366;2023-06-19T06:00:55;4.47;;;4.07;;
9720;SDS011;4899;42.644;23.366;2023-06-19T06:03:23;4.67;;;4.23;;
9720;SDS011;4899;42.644;23.366;2023-06-19T06:05:49;6.80;;;4.43;;
9720;SDS011;4899;42.644;23.366;2023-06-19T06:08:15;5.30;;;4.80;;
9720;SDS011;4899;42.644;23.366;2023-06-19T06:10:40;4.83;;;4.37;;
9720;SDS011;4899;42.644;23.366;2023-06-19T06:13:05;4.50;;;4.10;;
9720;SDS011;4899;42.644;23.366;2023-06-19T06:15:31;4.60;;;4.23;;
9720;SDS011;4899;42.644;23.366;2023-06-19T06:17:56;5.03;;;4.40;;
9720;SDS011;4899;42.644;23.366;2023-06-19T06:20:21;5.23;;;4.60;;
9720;SDS011;4899;42.644;23.366;2023-06-19T06:22:46;4.97;;;4.17;;
9720;SDS011;4899;42.644;23.366;2023-06-19T06:25:12;4.57;;;4.17;;
9720;SDS011;4899;42.644;23.366;2023-06-19T06:27:37;4.70;;;4.30;;
9720;SDS011;4899;42.644;23.366;2023-06-19T06:30:02;4.50;;;4.10;;
9720;SDS011;4899;42.644;23.366;2023-06-19T06:32:28;4.43;;;4.07;;
9720;SDS011;4899;42.644;23.366;2023-06-19T06:34:55;4.50;;;4.10;;
9720;SDS011;4899;42.644;23.366;2023-06-19T06:37:21;6.20;;;5.03;;
9720;SDS011;4899;42.644;23.366;2023-06-19T06:39:49;4.60;;;4.03;;
9720;SDS011;4899;42.644;23.366;2023-06-19T06:42:15;4.50;;;4.10;;
9720;SDS011;4899;42.644;23.366;2023-06-19T06:44:40;4.40;;;4.00;;
9720;SDS011;4899;42.644;23.366;2023-06-19T06:47:05;5.40;;;4.60;;
9720;SDS011;4899;42.644;23.366;2023-06-19T06:49:32;5.20;;;4.47;;
9720;SDS011;4899;42.644;23.366;2023-06-19T06:51:57;6.93;;;4.80;;
9720;SDS011;4899;42.644;23.366;2023-06-19T06:54:22;5.07;;;4.67;;
9720;SDS011;4899;42.644;23.366;2023-06-19T06:56:47;4.90;;;4.53;;
9720;SDS011;4899;42.644;23.366;2023-06-19T06:59:13;6.23;;;4.47;;
9720;SDS011;4899;42.644;23.366;2023-06-19T07:01:41;4.73;;;4.30;;
9720;SDS011;4899;42.644;23.366;2023-06-19T07:04:06;5.60;;;3.80;;
9720;SDS011;4899;42.644;23.366;2023-06-19T07:06:31;4.50;;;4.20;;
9720;SDS011;4899;42.644;23.366;2023-06-19T07:08:56;5.17;;;4.67;;
9720;SDS011;4899;42.644;23.366;2023-06-19T07:11:22;4.03;;;3.73;;
9720;SDS011;4899;42.644;23.366;2023-06-19T07:13:47;6.07;;;4.20;;
9720;SDS011;4899;42.644;23.366;2023-06-19T07:16:12;4.33;;;3.97;;
9720;SDS011;4899;42.644;23.366;2023-06-19T07:18:38;4.53;;;4.13;;
9720;SDS011;4899;42.644;23.366;2023-06-19T07:21:03;4.47;;;4.10;;
9720;SDS011;4899;42.644;23.366;2023-06-19T07:23:32;4.20;;;3.90;;
9720;SDS011;4899;42.644;23.366;2023-06-19T07:25:57;4.50;;;4.20;;
9720;SDS011;4899;42.644;23.366;2023-06-19T07:28:23;4.43;;;4.13;;
9720;SDS011;4899;42.644;23.366;2023-06-19T07:30:48;4.37;;;4.07;;
9720;SDS011;4899;42.644;23.366;2023-06-19T07:33:13;4.70;;;4.30;;
9720;SDS011;4899;42.644;23.366;2023-06-19T07:35:39;6.80;;;4.43;;
9720;SDS011;4899;42.644;23.366;2023-06-19T07:38:04;4.77;;;3.77;;
9720;SDS011;4899;42.644;23.366;2023-06-19T07:40:30;5.97;;;4.47;;
9720;SDS011;4899;42.644;23.366;2023-06-19T07:42:55;5.00;;;4.00;;
9720;SDS011;4899;42.644;23.366;2023-06-19T07:45:20;4.97;;;3.73;;
9720;SDS011;4899;42.644;23.366;2023-06-19T07:47:57;4.43;;;4.13;;
9720;SDS011;4899;42.644;23.366;2023-06-19T07:50:22;3.83;;;3.53;;
9720;SDS011;4899;42.644;23.366;2023-06-19T07:52:47;4.20;;;3.90;;
9720;SDS011;4899;42.644;23.366;2023-06-19T07:55:13;4.17;;;3.87;;
9720;SDS011;4899;42.644;23.366;2023-06-19T07:57:38;4.93;;;4.43;;
9720;SDS011;4899;42.644;23.366;2023-06-19T08:00:03;4.20;;;3.90;;
9720;SDS011;4899;42.644;23.366;2023-06-19T08:02:36;4.73;;;4.43;;
9720;SDS011;4899;42.644;23.366;2023-06-19T08:05:01;6.23;;;3.87;;
9720;SDS011;4899;42.644;23.366;2023-06-19T08:07:26;6.77;;;4.33;;
9720;SDS011;4899;42.644;23.366;2023-06-19T08:09:52;5.03;;;4.23;;
9720;SDS011;4899;42.644;23.366;2023-06-19T08:12:17;3.87;;;3.57;;
9720;SDS011;4899;42.644;23.366;2023-06-19T08:14:42;3.87;;;3.57;;
9720;SDS011;4899;42.644;23.366;2023-06-19T08:17:07;5.50;;;4.07;;
9720;SDS011;4899;42.644;23.366;2023-06-19T08:19:33;5.60;;;4.30;;
9720;SDS011;4899;42.644;23.366;2023-06-19T08:21:58;3.50;;;3.23;;
9720;SDS011;4899;42.644;23.366;2023-06-19T08:24:23;3.77;;;3.47;;
9720;SDS011;4899;42.644;23.366;2023-06-19T08:26:49;4.40;;;3.87;;
9720;SDS011;4899;42.644;23.366;2023-06-19T08:29:16;3.97;;;3.57;;
9720;SDS011;4899;42.644;23.366;2023-06-19T08:31:42;5.10;;;3.60;;
9720;SDS011;4899;42.644;23.366;2023-06-19T08:34:07;4.30;;;3.83;;
9720;SDS011;4899;42.644;23.366;2023-06-19T08:36:34;3.63;;;3.33;;
9720;SDS011;4899;42.644;23.366;2023-06-19T08:38:59;3.63;;;3.30;;
9720;SDS011;4899;42.644;23.366;2023-06-19T08:41:25;3.63;;;3.43;;
9720;SDS011;4899;42.644;23.366;2023-06-19T08:43:50;3.53;;;3.10;;
9720;SDS011;4899;42.644;23.366;2023-06-19T08:46:16;3.70;;;3.40;;
9720;SDS011;4899;42.644;23.366;2023-06-19T08:48:42;3.40;;;3.20;;
9720;SDS011;4899;42.644;23.366;2023-06-19T08:51:08;3.27;;;3.07;;
9720;SDS011;4899;42.644;23.366;2023-06-19T08:53:34;4.30;;;2.80;;
9720;SDS011;4899;42.644;23.366;2023-06-19T08:56:01;3.70;;;3.40;;
9720;SDS011;4899;42.644;23.366;2023-06-19T08:58:26;4.13;;;3.77;;
9720;SDS011;4899;42.644;23.366;2023-06-19T09:00:52;3.90;;;3.60;;
9720;SDS011;4899;42.644;23.366;2023-06-19T09:03:20;3.37;;;3.17;;
9720;SDS011;4899;42.644;23.366;2023-06-19T09:05:48;3.63;;;3.37;;
9720;SDS011;4899;42.644;23.366;2023-06-19T09:08:17;3.40;;;3.20;;
9720;SDS011;4899;42.644;23.366;2023-06-19T09:10:43;3.50;;;3.30;;
9720;SDS011;4899;42.644;23.366;2023-06-19T09:13:08;4.10;;;3.80;;
9720;SDS011;4899;42.644;23.366;2023-06-19T09:15:35;5.17;;;3.50;;
9720;SDS011;4899;42.644;23.366;2023-06-19T09:18:10;3.87;;;3.60;;
9720;SDS011;4899;42.644;23.366;2023-06-19T09:20:40;3.63;;;3.30;;
9720;SDS011;4899;42.644;23.366;2023-06-19T09:23:13;4.87;;;3.40;;
9720;SDS011;4899;42.644;23.366;2023-06-19T09:25:47;3.97;;;3.63;;
9720;SDS011;4899;42.644;23.366;2023-06-19T09:28:19;3.73;;;3.43;;
9720;SDS011;4899;42.644;23.366;2023-06-19T09:30:51;3.07;;;2.87;;
9720;SDS011;4899;42.644;23.366;2023-06-19T09:33:17;4.03;;;3.50;;
9720;SDS011;4899;42.644;23.366;2023-06-19T09:35:42;3.60;;;3.30;;
9720;SDS011;4899;42.644;23.366;2023-06-19T09:38:07;3.27;;;3.07;;
9720;SDS011;4899;42.644;23.366;2023-06-19T09:40:33;3.20;;;2.90;;
9720;SDS011;4899;42.644;23.366;2023-06-19T09:42:58;3.43;;;3.23;;
9720;SDS011;4899;42.644;23.366;2023-06-19T09:45:24;3.73;;;3.43;;
9720;SDS011;4899;42.644;23.366;2023-06-19T09:47:51;4.47;;;3.80;;
9720;SDS011;4899;42.644;23.366;2023-06-19T09:50:17;3.33;;;3.03;;
9720;SDS011;4899;42.644;23.366;2023-06-19T09:52:43;4.07;;;3.30;;
9720;SDS011;4899;42.644;23.366;2023-06-19T09:55:09;3.90;;;3.60;;
9720;SDS011;4899;42.644;23.366;2023-06-19T09:57:37;5.97;;;5.47;;
9720;SDS011;4899;42.644;23.366;2023-06-19T10:00:04;3.97;;;3.33;;
9720;SDS011;4899;42.644;23.366;2023-06-19T10:02:36;3.07;;;2.87;;
9720;SDS011;4899;42.644;23.366;2023-06-19T10:05:01;3.80;;;3.30;;
9720;SDS011;4899;42.644;23.366;2023-06-19T10:07:32;3.50;;;3.20;;
9720;SDS011;4899;42.644;23.366;2023-06-19T10:10:07;3.27;;;3.07;;
9720;SDS011;4899;42.644;23.366;2023-06-19T10:12:43;3.40;;;3.20;;
9720;SDS011;4899;42.644;23.366;2023-06-19T10:15:29;3.60;;;3.30;;
9720;SDS011;4899;42.644;23.366;2023-06-19T10:18:01;3.57;;;3.27;;
9720;SDS011;4899;42.644;23.366;2023-06-19T10:20:32;5.23;;;3.10;;
9720;SDS011;4899;42.644;23.366;2023-06-19T10:23:17;3.97;;;3.33;;
9720;SDS011;4899;42.644;23.366;2023-06-19T10:25:47;2.90;;;2.77;;
9720;SDS011;4899;42.644;23.366;2023-06-19T10:28:19;3.77;;;3.47;;
9720;SDS011;4899;42.644;23.366;2023-06-19T10:30:51;5.03;;;3.20;;
9720;SDS011;4899;42.644;23.366;2023-06-19T10:33:17;3.23;;;3.03;;
9720;SDS011;4899;42.644;23.366;2023-06-19T10:35:42;4.20;;;3.90;;
9720;SDS011;4899;42.644;23.366;2023-06-19T10:38:07;3.27;;;3.07;;
9720;SDS011;4899;42.644;23.366;2023-06-19T10:40:35;3.53;;;3.30;;
9720;SDS011;4899;42.644;23.366;2023-06-19T10:43:01;3.27;;;2.97;;
9720;SDS011;4899;42.644;23.366;2023-06-19T10:45:26;3.93;;;3.57;;
9720;SDS011;4899;42.644;23.366;2023-06-19T10:47:53;5.57;;;3.60;;
9720;SDS011;4899;42.644;23.366;2023-06-19T10:50:19;3.60;;;3.40;;
9720;SDS011;4899;42.644;23.366;2023-06-19T10:52:44;3.40;;;3.20;;
9720;SDS011;4899;42.644;23.366;2023-06-19T10:55:10;3.80;;;3.42;;
9720;SDS011;4899;42.644;23.366;2023-06-19T10:57:36;4.35;;;3.38;;
9720;SDS011;4899;42.644;23.366;2023-06-19T11:00:01;3.45;;;3.15;;
9720;SDS011;4899;42.644;23.366;2023-06-19T11:02:34;4.25;;;3.58;;
9720;SDS011;4899;42.644;23.366;2023-06-19T11:05:02;3.50;;;3.30;;
9720;SDS011;4899;42.644;23.366;2023-06-19T11:07:28;3.17;;;2.90;;
9720;SDS011;4899;42.644;23.366;2023-06-19T11:09:53;4.05;;;3.30;;
9720;SDS011;4899;42.644;23.366;2023-06-19T11:12:21;3.63;;;3.33;;
9720;SDS011;4899;42.644;23.366;2023-06-19T11:14:48;3.60;;;3.40;;
9720;SDS011;4899;42.644;23.366;2023-06-19T11:17:13;4.13;;;3.67;;
9720;SDS011;4899;42.644;23.366;2023-06-19T11:19:38;3.78;;;3.58;;
9720;SDS011;4899;42.644;23.366;2023-06-19T11:22:07;3.65;;;3.45;;
9720;SDS011;4899;42.644;23.366;2023-06-19T11:24:32;4.15;;;3.85;;
9720;SDS011;4899;42.644;23.366;2023-06-19T11:26:58;3.83;;;3.42;;
9720;SDS011;4899;42.644;23.366;2023-06-19T11:29:30;4.43;;;4.13;;
9720;SDS011;4899;42.644;23.366;2023-06-19T11:34:32;3.90;;;3.63;;
9720;SDS011;4899;42.644;23.366;2023-06-19T11:36:58;6.55;;;3.63;;
9720;SDS011;4899;42.644;23.366;2023-06-19T11:39:23;4.45;;;3.65;;
9720;SDS011;4899;42.644;23.366;2023-06-19T11:41:49;4.22;;;3.92;;
9720;SDS011;4899;42.644;23.366;2023-06-19T11:44:15;4.40;;;4.00;;
9720;SDS011;4899;42.644;23.366;2023-06-19T11:46:41;4.05;;;3.83;;
9720;SDS011;4899;42.644;23.366;2023-06-19T11:49:14;4.72;;;3.75;;
9720;SDS011;4899;42.644;23.366;2023-06-19T11:51:39;4.13;;;3.67;;
9720;SDS011;4899;42.644;23.366;2023-06-19T11:54:06;4.32;;;4.00;;
9720;SDS011;4899;42.644;23.366;2023-06-19T11:56:32;4.35;;;3.63;;
9720;SDS011;4899;42.644;23.366;2023-06-19T11:58:57;4.15;;;3.85;;
9720;SDS011;4899;42.644;23.366;2023-06-19T12:01:23;4.97;;;4.57;;
9720;SDS011;4899;42.644;23.366;2023-06-19T12:03:48;4.38;;;4.07;;
9720;SDS011;4899;42.644;23.366;2023-06-19T12:06:13;7.03;;;4.07;;
9720;SDS011;4899;42.644;23.366;2023-06-19T12:08:38;4.65;;;4.25;;
9720;SDS011;4899;42.644;23.366;2023-06-19T12:11:04;4.28;;;3.90;;
9720;SDS011;4899;42.644;23.366;2023-06-19T12:13:33;4.05;;;3.78;;
9720;SDS011;4899;42.644;23.366;2023-06-19T12:15:58;4.25;;;3.95;;
9720;SDS011;4899;42.644;23.366;2023-06-19T12:18:23;4.20;;;3.80;;
9720;SDS011;4899;42.644;23.366;2023-06-19T12:20:49;4.75;;;4.03;;
9720;SDS011;4899;42.644;23.366;2023-06-19T12:23:14;4.20;;;3.80;;
9720;SDS011;4899;42.644;23.366;2023-06-19T12:25:39;4.57;;;4.20;;
9720;SDS011;4899;42.644;23.366;2023-06-19T12:28:04;4.22;;;3.83;;
9720;SDS011;4899;42.644;23.366;2023-06-19T12:30:33;4.22;;;3.92;;
9720;SDS011;4899;42.644;23.366;2023-06-19T12:32:58;4.07;;;3.88;;
9720;SDS011;4899;42.644;23.366;2023-06-19T12:35:23;4.28;;;3.88;;
9720;SDS011;4899;42.644;23.366;2023-06-19T12:37:50;5.35;;;3.90;;
9720;SDS011;4899;42.644;23.366;2023-06-19T12:40:16;4.40;;;4.10;;
9720;SDS011;4899;42.644;23.366;2023-06-19T12:42:41;4.15;;;3.85;;
9720;SDS011;4899;42.644;23.366;2023-06-19T12:45:08;4.40;;;4.10;;
9720;SDS011;4899;42.644;23.366;2023-06-19T12:47:34;4.32;;;4.03;;
9720;SDS011;4899;42.644;23.366;2023-06-19T12:49:59;4.20;;;3.90;;
9720;SDS011;4899;42.644;23.366;2023-06-19T12:52:25;4.22;;;3.92;;
9720;SDS011;4899;42.644;23.366;2023-06-19T12:54:50;4.93;;;3.90;;
9720;SDS011;4899;42.644;23.366;2023-06-19T12:57:15;4.38;;;4.07;;
9720;SDS011;4899;42.644;23.366;2023-06-19T12:59:41;4.55;;;4.15;;
9720;SDS011;4899;42.644;23.366;2023-06-19T13:02:06;4.00;;;3.70;;
9720;SDS011;4899;42.644;23.366;2023-06-19T13:04:32;4.30;;;4.00;;
9720;SDS011;4899;42.644;23.366;2023-06-19T13:06:57;4.10;;;3.80;;
9720;SDS011;4899;42.644;23.366;2023-06-19T13:09:22;4.25;;;3.95;;
9720;SDS011;4899;42.644;23.366;2023-06-19T13:11:48;5.75;;;3.45;;
9720;SDS011;4899;42.644;23.366;2023-06-19T13:14:14;4.20;;;3.90;;
9720;SDS011;4899;42.644;23.366;2023-06-19T13:16:39;4.93;;;3.90;;
9720;SDS011;4899;42.644;23.366;2023-06-19T13:19:05;4.00;;;3.70;;
9720;SDS011;4899;42.644;23.366;2023-06-19T13:21:30;4.13;;;3.83;;
9720;SDS011;4899;42.644;23.366;2023-06-19T13:23:55;4.20;;;3.80;;
9720;SDS011;4899;42.644;23.366;2023-06-19T13:26:20;4.05;;;3.75;;
9720;SDS011;4899;42.644;23.366;2023-06-19T13:28:46;4.35;;;3.25;;
9720;SDS011;4899;42.644;23.366;2023-06-19T13:31:12;3.97;;;3.50;;
9720;SDS011;4899;42.644;23.366;2023-06-19T13:33:37;3.60;;;3.40;;
9720;SDS011;4899;42.644;23.366;2023-06-19T13:36:03;3.50;;;3.20;;
9720;SDS011;4899;42.644;23.366;2023-06-19T13:38:28;3.88;;;3.58;;
9720;SDS011;4899;42.644;23.366;2023-06-19T13:40:53;9.32;;;3.70;;
9720;SDS011;4899;42.644;23.366;2023-06-19T13:43:18;4.22;;;3.53;;
9720;SDS011;4899;42.644;23.366;2023-06-19T13:45:45;4.10;;;3.85;;
9720;SDS011;4899;42.644;23.366;2023-06-19T13:48:10;6.07;;;4.03;;
9720;SDS011;4899;42.644;23.366;2023-06-19T13:50:35;4.97;;;4.47;;
9720;SDS011;4899;42.644;23.366;2023-06-19T13:53:01;4.22;;;3.83;;
9720;SDS011;4899;42.644;23.366;2023-06-19T13:55:26;3.53;;;3.28;;
9720;SDS011;4899;42.644;23.366;2023-06-19T13:57:52;4.05;;;3.75;;
9720;SDS011;4899;42.644;23.366;2023-06-19T14:00:17;4.20;;;3.80;;
9720;SDS011;4899;42.644;23.366;2023-06-19T14:02:43;4.28;;;3.72;;
9720;SDS011;4899;42.644;23.366;2023-06-19T14:05:08;4.22;;;3.70;;
9720;SDS011;4899;42.644;23.366;2023-06-19T14:07:34;3.30;;;3.10;;
9720;SDS011;4899;42.644;23.366;2023-06-19T14:10:00;3.50;;;3.22;;
9720;SDS011;4899;42.644;23.366;2023-06-19T14:12:27;3.88;;;3.53;;
9720;SDS011;4899;42.644;23.366;2023-06-19T14:14:53;3.85;;;3.55;;
9720;SDS011;4899;42.644;23.366;2023-06-19T14:17:18;4.18;;;3.55;;
9720;SDS011;4899;42.644;23.366;2023-06-19T14:19:43;4.25;;;3.53;;
9720;SDS011;4899;42.644;23.366;2023-06-19T14:22:09;3.50;;;3.20;;
9720;SDS011;4899;42.644;23.366;2023-06-19T14:24:34;4.72;;;3.33;;
9720;SDS011;4899;42.644;23.366;2023-06-19T14:26:59;3.58;;;3.30;;
9720;SDS011;4899;42.644;23.366;2023-06-19T14:29:24;4.22;;;3.83;;
9720;SDS011;4899;42.644;23.366;2023-06-19T14:31:52;5.13;;;4.72;;
9720;SDS011;4899;42.644;23.366;2023-06-19T14:34:18;4.70;;;4.30;;
9720;SDS011;4899;42.644;23.366;2023-06-19T14:36:44;4.10;;;3.70;;
9720;SDS011;4899;42.644;23.366;2023-06-19T14:39:09;3.33;;;3.13;;
9720;SDS011;4899;42.644;23.366;2023-06-19T14:41:36;4.05;;;3.78;;
9720;SDS011;4899;42.644;23.366;2023-06-19T14:44:01;3.65;;;3.35;;
9720;SDS011;4899;42.644;23.366;2023-06-19T14:46:27;3.70;;;3.40;;
9720;SDS011;4899;42.644;23.366;2023-06-19T14:48:52;4.32;;;3.88;;
9720;SDS011;4899;42.644;23.366;2023-06-19T14:51:17;5.22;;;3.60;;
9720;SDS011;4899;42.644;23.366;2023-06-19T14:53:43;4.60;;;4.00;;
9720;SDS011;4899;42.644;23.366;2023-06-19T14:56:08;3.53;;;3.33;;
9720;SDS011;4899;42.644;23.366;2023-06-19T14:58:33;4.50;;;4.20;;